Time;durP1;ratioP1;P1;durP2;ratioP2;P2;SDS_P1;SDS_P2;PMS_P1;PMS_P2;Temp;Humidity;BMP_temperature;BMP_pressure;BME280_temperature;BME280_humidity;BME280_pressure;Samples;Min_cycle;Max_cycle;Signal;HPM_P1;HPM_P2
2024/01/19 00:02:15;;;;;;;70.63;49.33;;;;;;;-140.33;100.00;61596.09;5017300;28;20503;-74
2024/01/19 00:04:41;;;;;;;74.05;49.17;;;;;;;-140.33;100.00;61596.09;5022628;28;20496;-71
2024/01/19 00:07:07;;;;;;;67.63;46.35;;;;;;;-140.33;100.00;61596.09;5019815;28;20030;-71
2024/01/19 00:09:32;;;;;;;62.92;45.78;;;;;;;-140.33;100.00;61596.09;5018481;28;20405;-72
2024/01/19 00:11:58;;;;;;;68.55;46.85;;;;;;;-140.33;100.00;61596.09;5022040;28;20034;-71
2024/01/19 00:14:24;;;;;;;65.82;46.20;;;;;;;-140.33;100.00;61596.09;5022053;28;20507;-72
2024/01/19 00:16:50;;;;;;;70.65;48.45;;;;;;;-140.33;100.00;61596.09;5010027;28;20032;-71
2024/01/19 00:19:15;;;;;;;72.95;51.65;;;;;;;-140.33;100.00;61596.09;5011680;28;20037;-72
2024/01/19 00:21:45;;;;;;;69.15;49.00;;;;;;;-140.33;100.00;61596.09;5019560;28;20480;-72
2024/01/19 00:24:12;;;;;;;70.22;48.63;;;;;;;-140.33;100.00;61596.09;5018746;28;20029;-71
2024/01/19 00:26:37;;;;;;;73.15;50.53;;;;;;;-140.33;100.00;61596.09;5016025;28;20587;-71
2024/01/19 00:29:03;;;;;;;66.00;47.17;;;;;;;-140.33;100.00;61596.09;5008254;28;20034;-73
2024/01/19 00:31:29;;;;;;;74.47;51.40;;;;;;;-140.33;100.00;61596.09;5019556;28;20541;-71
2024/01/19 00:33:54;;;;;;;72.43;50.03;;;;;;;-140.33;100.00;61596.09;5014924;28;20554;-71
2024/01/19 00:36:20;;;;;;;69.20;48.20;;;;;;;-140.33;100.00;61596.09;5018257;28;20035;-72
2024/01/19 00:38:45;;;;;;;69.75;48.88;;;;;;;-140.33;100.00;61596.09;5024037;28;20099;-71
2024/01/19 00:41:11;;;;;;;71.65;48.45;;;;;;;-140.33;100.00;61596.09;5010987;28;20034;-70
2024/01/19 00:43:37;;;;;;;72.68;49.38;;;;;;;-140.33;100.00;61596.09;5019926;28;20034;-71
2024/01/19 00:46:03;;;;;;;77.38;52.50;;;;;;;-140.33;100.00;61596.09;5016728;28;20088;-71
2024/01/19 00:48:30;;;;;;;72.10;49.88;;;;;;;-140.33;100.00;61596.09;5019754;28;20040;-71
2024/01/19 00:50:55;;;;;;;73.10;49.55;;;;;;;-140.33;100.00;61596.09;5015809;28;20041;-72
2024/01/19 00:53:21;;;;;;;68.10;48.83;;;;;;;-140.33;100.00;61596.09;5021930;28;20396;-71
2024/01/19 00:55:47;;;;;;;73.55;51.25;;;;;;;-140.33;100.00;61596.09;5020224;28;20083;-76
2024/01/19 00:58:12;;;;;;;68.32;49.45;;;;;;;-140.33;100.00;61596.09;5010693;28;20399;-71
2024/01/19 01:00:38;;;;;;;81.88;53.90;;;;;;;-140.33;100.00;61596.09;5009385;28;20041;-71
2024/01/19 01:03:03;;;;;;;75.28;52.25;;;;;;;-140.33;100.00;61596.09;5018277;28;20042;-72
2024/01/19 01:05:29;;;;;;;72.35;51.80;;;;;;;-140.33;100.00;61596.09;5018423;28;20041;-73
2024/01/19 01:07:55;;;;;;;73.78;53.83;;;;;;;-140.33;100.00;61596.09;5017492;28;20065;-73
2024/01/19 01:10:21;;;;;;;75.28;52.88;;;;;;;-140.33;100.00;61596.09;5018247;28;20041;-72
2024/01/19 01:12:46;;;;;;;77.88;54.20;;;;;;;-140.33;100.00;61596.09;5019931;28;20071;-71
2024/01/19 01:15:12;;;;;;;76.32;53.55;;;;;;;-140.33;100.00;61596.09;5023183;28;20021;-71
2024/01/19 01:17:37;;;;;;;72.57;52.60;;;;;;;-140.33;100.00;61596.09;5020483;28;20041;-72
2024/01/19 01:20:03;;;;;;;74.05;52.95;;;;;;;-140.33;100.00;61596.09;5019145;28;20057;-71
2024/01/19 01:22:29;;;;;;;81.20;54.25;;;;;;;-140.33;100.00;61596.09;4993603;28;20060;-72
2024/01/19 01:24:54;;;;;;;81.53;55.47;;;;;;;-140.33;100.00;61596.09;5021368;28;20030;-71
2024/01/19 01:27:20;;;;;;;73.65;53.28;;;;;;;-140.33;100.00;61596.09;5021854;28;20026;-72
2024/01/19 01:29:45;;;;;;;80.15;55.70;;;;;;;-140.33;100.00;61596.09;5014418;28;20061;-72
2024/01/19 01:32:11;;;;;;;78.78;54.08;;;;;;;-140.33;100.00;61596.09;5020141;28;20053;-71
2024/01/19 01:34:36;;;;;;;80.20;54.50;;;;;;;-140.33;100.00;61596.09;5009746;28;20088;-71
2024/01/19 01:37:02;;;;;;;75.38;52.08;;;;;;;-140.33;100.00;61596.09;5008878;28;20112;-71
2024/01/19 01:39:28;;;;;;;80.68;54.50;;;;;;;-140.33;100.00;61596.09;5019849;28;20041;-72
2024/01/19 01:42:02;;;;;;;71.60;51.00;;;;;;;-140.33;100.00;61596.09;5020163;28;20053;-72
2024/01/19 01:44:27;;;;;;;71.85;50.95;;;;;;;-140.33;100.00;61596.09;5008911;28;20120;-71
2024/01/19 01:46:53;;;;;;;75.90;53.08;;;;;;;-140.33;100.00;61596.09;5010890;28;20120;-72
2024/01/19 01:49:18;;;;;;;76.15;52.65;;;;;;;-140.33;100.00;61596.09;5008809;28;20032;-72
2024/01/19 01:51:45;;;;;;;76.97;53.45;;;;;;;-140.33;100.00;61596.09;5022009;28;20057;-70
2024/01/19 01:54:14;;;;;;;75.50;52.08;;;;;;;-140.33;100.00;61596.09;5010368;28;20033;-72
2024/01/19 01:56:40;;;;;;;74.88;52.50;;;;;;;-140.33;100.00;61596.09;5009113;28;20107;-72
2024/01/19 01:59:07;;;;;;;75.20;52.92;;;;;;;-140.33;100.00;61596.09;5021310;28;20026;-73
2024/01/19 02:01:34;;;;;;;68.07;46.90;;;;;;;-140.33;100.00;61596.09;5025740;28;20438;-73
2024/01/19 02:03:59;;;;;;;62.83;45.35;;;;;;;-140.33;100.00;61596.09;5015116;28;20042;-73
2024/01/19 02:06:25;;;;;;;63.40;42.72;;;;;;;-140.33;100.00;61596.09;5009369;28;20033;-72
2024/01/19 02:08:50;;;;;;;59.13;42.80;;;;;;;-140.33;100.00;61596.09;5020560;28;20044;-74
2024/01/19 02:11:16;;;;;;;61.90;41.33;;;;;;;-140.33;100.00;61596.09;5020945;28;20034;-72
2024/01/19 02:13:43;;;;;;;61.75;43.08;;;;;;;-140.33;100.00;61596.09;5019604;28;20084;-73
2024/01/19 02:16:09;;;;;;;57.00;41.10;;;;;;;-140.33;100.00;61596.09;5019986;28;20057;-72
2024/01/19 02:18:34;;;;;;;59.17;40.63;;;;;;;-140.33;100.00;61596.09;5009840;28;20103;-72
2024/01/19 02:21:00;;;;;;;59.47;41.42;;;;;;;-140.33;100.00;61596.09;5019105;28;20463;-73
2024/01/19 02:23:31;;;;;;;59.13;40.15;;;;;;;-140.33;100.00;61596.09;5013167;28;20045;-73
2024/01/19 02:25:57;;;;;;;55.47;37.72;;;;;;;-140.33;100.00;61596.09;5012950;28;20033;-73
2024/01/19 02:28:22;;;;;;;52.63;36.92;;;;;;;-140.33;100.00;61596.09;5018162;28;20037;-73
2024/01/19 02:30:48;;;;;;;53.35;38.05;;;;;;;-140.33;100.00;61596.09;5019991;28;20053;-71
2024/01/19 02:33:13;;;;;;;52.70;36.40;;;;;;;-140.33;100.00;61596.09;5025330;28;20078;-71
2024/01/19 02:35:39;;;;;;;50.97;35.65;;;;;;;-140.33;100.00;61596.09;5012196;28;20033;-71
2024/01/19 02:38:04;;;;;;;56.00;38.95;;;;;;;-140.33;100.00;61596.09;5011891;28;20112;-71
2024/01/19 02:40:30;;;;;;;57.08;39.28;;;;;;;-140.33;100.00;61596.09;5017971;28;20037;-72
2024/01/19 02:42:55;;;;;;;56.78;39.10;;;;;;;-140.33;100.00;61596.09;5019969;28;20037;-71
2024/01/19 02:45:20;;;;;;;55.97;37.83;;;;;;;-140.33;100.00;61596.09;5023360;28;20576;-71
2024/01/19 02:47:46;;;;;;;55.00;38.00;;;;;;;-140.33;100.00;61596.09;5027352;28;20039;-71
2024/01/19 02:50:11;;;;;;;52.22;36.30;;;;;;;-140.33;100.00;61596.09;5021456;28;20079;-69
2024/01/19 02:52:37;;;;;;;59.97;39.17;;;;;;;-140.33;100.00;61596.09;5009412;28;20119;-71
2024/01/19 02:55:04;;;;;;;54.50;38.33;;;;;;;-140.33;100.00;61596.09;5021823;28;20432;-70
2024/01/19 02:57:30;;;;;;;60.88;41.67;;;;;;;-140.33;100.00;61596.09;5015998;28;20038;-71
2024/01/19 02:59:56;;;;;;;61.25;41.40;;;;;;;-140.33;100.00;61596.09;5018722;28;20504;-71
2024/01/19 03:02:21;;;;;;;62.80;41.65;;;;;;;-140.33;100.00;61596.09;5011469;28;20036;-71
2024/01/19 03:04:51;;;;;;;60.72;42.33;;;;;;;-140.33;100.00;61596.09;5013547;28;20029;-71
2024/01/19 03:07:16;;;;;;;63.53;41.25;;;;;;;-140.33;100.00;61596.09;5018228;28;20021;-71
2024/01/19 03:09:43;;;;;;;66.55;44.22;;;;;;;-140.33;100.00;61596.09;5021672;28;20029;-71
2024/01/19 03:12:08;;;;;;;59.88;40.83;;;;;;;-140.33;100.00;61596.09;5011538;28;20033;-74
2024/01/19 03:14:33;;;;;;;60.20;41.83;;;;;;;-140.33;100.00;61596.09;5021096;28;20454;-72
2024/01/19 03:16:59;;;;;;;62.20;42.38;;;;;;;-140.33;100.00;61596.09;5012918;28;20042;-74
2024/01/19 03:19:24;;;;;;;57.55;39.95;;;;;;;-140.33;100.00;61596.09;5011286;28;20036;-71
2024/01/19 03:21:50;;;;;;;60.05;41.15;;;;;;;-140.33;100.00;61596.09;5020186;28;20026;-72
2024/01/19 03:24:16;;;;;;;59.63;41.78;;;;;;;-140.33;100.00;61596.09;5021159;28;20064;-74
2024/01/19 03:26:42;;;;;;;62.25;42.45;;;;;;;-140.33;100.00;61596.09;5012086;28;20099;-76
2024/01/19 03:29:08;;;;;;;64.82;44.22;;;;;;;-140.33;100.00;61596.09;5015979;28;20026;-72
2024/01/19 03:31:34;;;;;;;57.08;41.30;;;;;;;-140.33;100.00;61596.09;5024101;28;20072;-74
2024/01/19 03:33:59;;;;;;;62.65;44.45;;;;;;;-140.33;100.00;61596.09;5026438;28;20060;-75
2024/01/19 03:36:25;;;;;;;67.75;46.08;;;;;;;-140.33;100.00;61596.09;5010884;28;20388;-74
2024/01/19 03:38:50;;;;;;;64.78;45.97;;;;;;;-140.33;100.00;61596.09;5017096;28;20549;-72
2024/01/19 03:41:15;;;;;;;65.43;45.50;;;;;;;-140.33;100.00;61596.09;5020480;28;20030;-74
2024/01/19 03:43:43;;;;;;;64.82;45.80;;;;;;;-140.33;100.00;61596.09;5009533;28;20072;-71
2024/01/19 03:46:08;;;;;;;61.25;43.65;;;;;;;-140.33;100.00;61596.09;5011437;28;20033;-71
2024/01/19 03:48:34;;;;;;;64.07;44.25;;;;;;;-140.33;100.00;61596.09;5021991;28;20483;-72
2024/01/19 03:50:59;;;;;;;66.55;45.47;;;;;;;-140.33;100.00;61596.09;5011741;28;20060;-72
2024/01/19 03:53:26;;;;;;;68.35;45.95;;;;;;;-140.33;100.00;61596.09;5010849;28;20046;-72
2024/01/19 03:55:51;;;;;;;77.05;47.63;;;;;;;-140.33;100.00;61596.09;5015729;28;20130;-71
2024/01/19 03:58:16;;;;;;;80.95;50.20;;;;;;;-140.33;100.00;61596.09;5018174;28;20164;-71
2024/01/19 04:00:42;;;;;;;61.72;44.78;;;;;;;-140.33;100.00;61596.09;5020514;28;20506;-73
2024/01/19 04:03:07;;;;;;;61.75;44.88;;;;;;;-140.33;100.00;61596.09;5017914;28;20945;-73
2024/01/19 04:05:33;;;;;;;63.80;43.35;;;;;;;-140.33;100.00;61596.09;5023991;28;20033;-74
2024/01/19 04:07:58;;;;;;;74.95;50.95;;;;;;;-140.33;100.00;61596.09;5023200;28;20030;-73
2024/01/19 04:10:24;;;;;;;74.32;51.67;;;;;;;-140.33;100.00;61596.09;5022128;28;20037;-71
2024/01/19 04:12:51;;;;;;;78.55;53.83;;;;;;;-140.33;100.00;61596.09;5014184;28;20408;-73
2024/01/19 04:15:17;;;;;;;79.22;54.90;;;;;;;-140.33;100.00;61596.09;5010911;28;20048;-71
2024/01/19 04:17:42;;;;;;;73.95;51.55;;;;;;;-140.33;100.00;61596.09;5013920;28;20038;-71
2024/01/19 04:20:08;;;;;;;72.57;52.05;;;;;;;-140.33;100.00;61596.09;5016934;28;20537;-70
2024/01/19 04:22:33;;;;;;;72.68;51.97;;;;;;;-140.33;100.00;61596.09;5021645;28;20033;-72
2024/01/19 04:24:59;;;;;;;86.25;56.38;;;;;;;-140.33;100.00;61596.09;5021693;28;20034;-75
2024/01/19 04:27:24;;;;;;;85.30;55.15;;;;;;;-140.33;100.00;61596.09;5022818;28;20037;-76
2024/01/19 04:29:50;;;;;;;81.63;54.30;;;;;;;-140.33;100.00;61596.09;5021948;28;20037;-71
2024/01/19 04:32:15;;;;;;;72.38;51.40;;;;;;;-140.33;100.00;61596.09;5012980;28;20135;-72
2024/01/19 04:34:40;;;;;;;92.95;60.53;;;;;;;-140.33;100.00;61596.09;5017527;28;20029;-73
2024/01/19 04:37:06;;;;;;;98.50;60.08;;;;;;;-140.33;100.00;61596.09;5018278;28;20518;-70
2024/01/19 04:39:31;;;;;;;80.68;55.53;;;;;;;-140.33;100.00;61596.09;5008732;28;20029;-70
2024/01/19 04:41:57;;;;;;;73.57;51.47;;;;;;;-140.33;100.00;61596.09;5015380;28;20124;-72
2024/01/19 04:44:22;;;;;;;86.10;58.47;;;;;;;-140.33;100.00;61596.09;5009512;28;20037;-70
2024/01/19 04:46:47;;;;;;;95.55;64.88;;;;;;;-140.33;100.00;61596.09;5016450;28;20454;-72
2024/01/19 04:49:13;;;;;;;89.35;61.65;;;;;;;-140.33;100.00;61596.09;5018569;28;20044;-69
2024/01/19 04:51:38;;;;;;;84.93;58.80;;;;;;;-140.33;100.00;61596.09;5018207;28;20446;-72
2024/01/19 04:54:05;;;;;;;82.70;55.58;;;;;;;-140.33;100.00;61596.09;5004713;28;20033;-76
2024/01/19 04:56:31;;;;;;;86.80;58.42;;;;;;;-140.33;100.00;61596.09;5002023;28;20037;-73
2024/01/19 04:58:56;;;;;;;80.88;58.28;;;;;;;-140.33;100.00;61596.09;5002884;28;20417;-73
2024/01/19 05:01:21;;;;;;;91.68;64.80;;;;;;;-140.33;100.00;61596.09;5001421;28;20095;-74
2024/01/19 05:03:47;;;;;;;87.13;60.17;;;;;;;-140.33;100.00;61596.09;5015357;28;20122;-71
2024/01/19 05:06:13;;;;;;;86.25;60.45;;;;;;;-140.33;100.00;61596.09;5000276;28;20055;-73
2024/01/19 05:08:39;;;;;;;86.60;61.00;;;;;;;-140.33;100.00;61596.09;4998647;28;20029;-74
2024/01/19 05:11:04;;;;;;;88.93;64.53;;;;;;;-140.33;100.00;61596.09;5014986;28;20499;-72
2024/01/19 05:13:30;;;;;;;87.35;62.38;;;;;;;-140.33;100.00;61596.09;4999509;28;20041;-74
2024/01/19 05:15:55;;;;;;;94.80;66.28;;;;;;;-140.33;100.00;61596.09;5016127;28;20025;-74
2024/01/19 05:18:21;;;;;;;115.68;74.78;;;;;;;-140.33;100.00;61596.09;5011739;28;20295;-74
2024/01/19 05:20:46;;;;;;;97.32;68.43;;;;;;;-140.33;100.00;61596.09;5000160;28;20087;-72
2024/01/19 05:23:12;;;;;;;111.60;80.85;;;;;;;-140.33;100.00;61596.09;5015234;28;20034;-72
2024/01/19 05:25:37;;;;;;;106.95;78.03;;;;;;;-140.33;100.00;61596.09;5018598;28;20103;-72
2024/01/19 05:28:03;;;;;;;116.45;80.68;;;;;;;-140.33;100.00;61596.09;5013170;28;20483;-71
2024/01/19 05:30:28;;;;;;;105.75;76.97;;;;;;;-140.33;100.00;61596.09;5019426;28;20033;-74
2024/01/19 05:32:54;;;;;;;101.43;75.93;;;;;;;-140.33;100.00;61596.09;5001556;28;20822;-73
2024/01/19 05:35:19;;;;;;;106.03;75.50;;;;;;;-140.33;100.00;61596.09;5000644;28;20040;-70
2024/01/19 05:37:45;;;;;;;115.35;82.57;;;;;;;-140.33;100.00;61596.09;5014382;28;20480;-71
2024/01/19 05:40:10;;;;;;;105.00;74.50;;;;;;;-140.33;100.00;61596.09;5015984;28;20030;-72
2024/01/19 05:42:36;;;;;;;107.57;78.30;;;;;;;-140.33;100.00;61596.09;5018015;28;20057;-70
2024/01/19 05:45:01;;;;;;;112.10;76.65;;;;;;;-140.33;100.00;61596.09;5020858;28;20037;-70
2024/01/19 05:47:27;;;;;;;155.15;100.30;;;;;;;-140.33;100.00;61596.09;5013575;28;20034;-71
2024/01/19 05:49:53;;;;;;;185.98;99.45;;;;;;;-140.33;100.00;61596.09;5007463;28;20112;-72
2024/01/19 05:52:19;;;;;;;76.80;50.38;;;;;;;-140.33;100.00;61596.09;5015889;28;20563;-72
2024/01/19 05:54:44;;;;;;;223.20;91.15;;;;;;;-140.33;100.00;61596.09;5007934;28;20448;-70
2024/01/19 05:57:10;;;;;;;484.67;113.35;;;;;;;-140.33;100.00;61596.09;5013780;28;20030;-72
2024/01/19 05:59:38;;;;;;;301.38;107.15;;;;;;;-140.33;100.00;61596.09;5025916;28;20061;-72
2024/01/19 06:02:04;;;;;;;298.73;95.20;;;;;;;-140.33;100.00;61596.09;5013554;28;20034;-72
2024/01/19 06:04:33;;;;;;;458.17;119.72;;;;;;;-140.33;100.00;61596.09;5012258;28;20091;-72
2024/01/19 06:06:58;;;;;;;128.88;81.18;;;;;;;-140.33;100.00;61596.09;5025915;28;20116;-72
2024/01/19 06:09:24;;;;;;;229.50;84.60;;;;;;;-140.33;100.00;61596.09;5017083;28;20113;-74
2024/01/19 06:11:49;;;;;;;301.10;85.35;;;;;;;-140.33;100.00;61596.09;5023846;28;20080;-73
2024/01/19 06:14:15;;;;;;;244.77;90.82;;;;;;;-140.33;100.00;61596.09;5024008;28;20415;-72
2024/01/19 06:16:41;;;;;;;466.05;97.85;;;;;;;-140.33;100.00;61596.09;5023571;28;20040;-71
2024/01/19 06:19:06;;;;;;;984.17;155.13;;;;;;;-140.33;100.00;61596.09;5019515;28;20033;-73
2024/01/19 06:21:32;;;;;;;429.48;111.32;;;;;;;-140.33;100.00;61596.09;5009062;28;20450;-72
2024/01/19 06:23:57;;;;;;;333.92;107.25;;;;;;;-140.33;100.00;61596.09;5020407;28;20160;-73
2024/01/19 06:26:23;;;;;;;740.80;157.10;;;;;;;-140.33;100.00;61596.09;5009939;28;20062;-71
2024/01/19 06:28:48;;;;;;;653.67;117.95;;;;;;;-140.33;100.00;61596.09;5012188;28;20144;-71
2024/01/19 06:31:14;;;;;;;345.50;93.80;;;;;;;-140.33;100.00;61596.09;5012031;28;20491;-74
2024/01/19 06:33:39;;;;;;;461.48;95.82;;;;;;;-140.33;100.00;61596.09;5020268;28;20045;-71
2024/01/19 06:36:09;;;;;;;236.40;98.50;;;;;;;-140.33;100.00;61596.09;5018821;28;20033;-71
2024/01/19 06:38:34;;;;;;;204.63;93.57;;;;;;;-140.33;100.00;61596.09;5017072;28;20099;-71
2024/01/19 06:41:00;;;;;;;159.57;78.30;;;;;;;-140.33;100.00;61596.09;5019264;28;20042;-71
2024/01/19 06:43:25;;;;;;;301.90;98.45;;;;;;;-140.33;100.00;61596.09;5020708;28;20033;-74
2024/01/19 06:45:50;;;;;;;330.42;102.07;;;;;;;-140.33;100.00;61596.09;5024578;28;20124;-74
2024/01/19 06:48:16;;;;;;;410.90;132.90;;;;;;;-140.33;100.00;61596.09;5019212;28;20029;-71
2024/01/19 06:50:41;;;;;;;431.02;133.20;;;;;;;-140.33;100.00;61596.09;5022936;28;20030;-71
2024/01/19 06:53:07;;;;;;;831.28;152.82;;;;;;;-140.33;100.00;61596.09;5012468;28;20054;-71
2024/01/19 06:55:32;;;;;;;274.35;109.55;;;;;;;-140.33;100.00;61596.09;5014922;28;20100;-73
2024/01/19 06:57:57;;;;;;;270.70;100.78;;;;;;;-140.33;100.00;61596.09;5027650;28;20034;-74
2024/01/19 07:00:23;;;;;;;475.50;111.88;;;;;;;-140.33;100.00;61596.09;5009428;28;20038;-73
2024/01/19 07:02:49;;;;;;;683.15;123.40;;;;;;;-140.33;100.00;61596.09;5015942;28;20555;-72
2024/01/19 07:05:15;;;;;;;330.80;105.20;;;;;;;-140.33;100.00;61596.09;5018615;28;20183;-74
2024/01/19 07:07:40;;;;;;;350.90;99.95;;;;;;;-140.33;100.00;61596.09;5008129;28;20498;-74
2024/01/19 07:10:06;;;;;;;710.20;117.97;;;;;;;-140.33;100.00;61596.09;5010308;28;20501;-71
2024/01/19 07:12:32;;;;;;;723.72;113.70;;;;;;;-140.33;100.00;61596.09;5018448;28;20040;-72
2024/01/19 07:14:57;;;;;;;460.20;92.80;;;;;;;-140.33;100.00;61596.09;5018662;28;20087;-72
2024/01/19 07:17:22;;;;;;;916.30;118.53;;;;;;;-140.33;100.00;61596.09;5019959;28;20352;-72
2024/01/19 07:19:48;;;;;;;394.52;98.07;;;;;;;-140.33;100.00;61596.09;5024153;28;20071;-72
2024/01/19 07:22:13;;;;;;;386.40;94.43;;;;;;;-140.33;100.00;61596.09;5014701;28;20124;-72
2024/01/19 07:24:39;;;;;;;254.75;83.10;;;;;;;-140.33;100.00;61596.09;5020710;28;20056;-71
2024/01/19 07:27:04;;;;;;;455.92;95.22;;;;;;;-140.33;100.00;61596.09;5023085;28;20044;-72
2024/01/19 07:29:33;;;;;;;320.85;89.00;;;;;;;-140.33;100.00;61596.09;5017902;28;20178;-70
2024/01/19 07:31:59;;;;;;;498.27;96.00;;;;;;;-140.33;100.00;61596.09;5012642;28;20029;-71
2024/01/19 07:34:25;;;;;;;423.52;120.85;;;;;;;-140.33;100.00;61596.09;5019804;28;20029;-73
2024/01/19 07:36:51;;;;;;;382.35;87.45;;;;;;;-140.33;100.00;61596.09;5010206;28;20052;-70
2024/01/19 07:39:18;;;;;;;347.58;87.03;;;;;;;-140.33;100.00;61596.09;5019178;28;20028;-72
2024/01/19 07:41:44;;;;;;;265.20;77.22;;;;;;;-140.33;100.00;61596.09;5022943;28;20503;-71
2024/01/19 07:44:09;;;;;;;299.00;74.25;;;;;;;-140.33;100.00;61596.09;5010647;28;20121;-72
2024/01/19 07:46:35;;;;;;;376.75;80.63;;;;;;;-140.33;100.00;61596.09;5010815;28;20064;-71
2024/01/19 07:49:01;;;;;;;307.83;75.18;;;;;;;-140.33;100.00;61596.09;5012758;28;20060;-74
2024/01/19 07:51:27;;;;;;;322.77;76.32;;;;;;;-140.33;100.00;61596.09;5019843;28;20559;-72
2024/01/19 07:53:54;;;;;;;414.50;82.53;;;;;;;-140.33;100.00;61596.09;5011976;28;20042;-72
2024/01/19 07:56:20;;;;;;;270.08;80.70;;;;;;;-140.33;100.00;61596.09;5023581;28;20492;-72
2024/01/19 07:58:45;;;;;;;661.53;103.45;;;;;;;-140.33;100.00;61596.09;5021469;28;20040;-71
2024/01/19 08:01:11;;;;;;;824.00;116.13;;;;;;;-140.33;100.00;61596.09;5014653;28;20407;-72
2024/01/19 08:03:38;;;;;;;223.50;69.68;;;;;;;-140.33;100.00;61596.09;5021079;28;20061;-72
2024/01/19 08:06:04;;;;;;;192.65;72.30;;;;;;;-140.33;100.00;61596.09;5010425;28;20080;-73
2024/01/19 08:08:30;;;;;;;233.63;74.47;;;;;;;-140.33;100.00;61596.09;5010234;28;20458;-72
2024/01/19 08:10:55;;;;;;;177.73;72.13;;;;;;;-140.33;100.00;61596.09;5021798;28;20036;-73
2024/01/19 08:13:20;;;;;;;275.85;81.57;;;;;;;-140.33;100.00;61596.09;5021526;28;20040;-72
2024/01/19 08:15:46;;;;;;;472.10;74.43;;;;;;;-140.33;100.00;61596.09;5010861;28;20450;-73
2024/01/19 08:18:11;;;;;;;260.75;65.50;;;;;;;-140.33;100.00;61596.09;5021671;28;20030;-73
2024/01/19 08:20:37;;;;;;;232.75;63.78;;;;;;;-140.33;100.00;61596.09;5016485;28;20049;-73
2024/01/19 08:23:02;;;;;;;238.18;68.90;;;;;;;-140.33;100.00;61596.09;5020306;28;20112;-71
2024/01/19 08:25:28;;;;;;;200.10;76.28;;;;;;;-140.33;100.00;61596.09;5022433;28;20049;-72
2024/01/19 08:27:53;;;;;;;323.27;78.65;;;;;;;-140.33;100.00;61596.09;5014074;28;20069;-72
2024/01/19 08:30:20;;;;;;;166.60;67.25;;;;;;;-140.33;100.00;61596.09;5010105;28;20037;-72
2024/01/19 08:32:45;;;;;;;151.93;65.97;;;;;;;-140.33;100.00;61596.09;5018916;28;20033;-74
2024/01/19 08:35:11;;;;;;;128.27;64.00;;;;;;;-140.33;100.00;61596.09;5018614;28;20030;-73
2024/01/19 08:37:40;;;;;;;157.15;64.05;;;;;;;-140.33;100.00;61596.09;5020719;28;20113;-73
2024/01/19 08:40:07;;;;;;;163.57;64.30;;;;;;;-140.33;100.00;61596.09;5010672;28;20036;-73
2024/01/19 08:42:32;;;;;;;111.55;59.88;;;;;;;-140.33;100.00;61596.09;5011850;28;20076;-72
2024/01/19 08:44:58;;;;;;;183.27;74.68;;;;;;;-140.33;100.00;61596.09;5021824;28;20080;-71
2024/01/19 08:47:24;;;;;;;143.73;68.38;;;;;;;-140.33;100.00;61596.09;5013735;28;20557;-72
2024/01/19 08:49:49;;;;;;;180.20;72.47;;;;;;;-140.33;100.00;61596.09;5014076;28;20088;-73
2024/01/19 08:52:15;;;;;;;154.70;68.82;;;;;;;-140.33;100.00;61596.09;5019824;28;20124;-72
2024/01/19 08:54:40;;;;;;;170.90;70.78;;;;;;;-140.33;100.00;61596.09;5017276;28;20251;-72
2024/01/19 08:57:06;;;;;;;125.32;66.25;;;;;;;-140.33;100.00;61596.09;5022731;28;20033;-72
2024/01/19 08:59:32;;;;;;;112.85;62.88;;;;;;;-140.33;100.00;61596.09;5017929;28;20032;-72
2024/01/19 09:01:57;;;;;;;157.25;73.60;;;;;;;-140.33;100.00;61596.09;5015476;28;20030;-72
2024/01/19 09:04:23;;;;;;;148.52;68.25;;;;;;;-140.33;100.00;61596.09;5021525;28;20040;-74
2024/01/19 09:06:49;;;;;;;171.45;73.03;;;;;;;-140.33;100.00;61596.09;5016048;28;20022;-72
2024/01/19 09:09:14;;;;;;;126.68;68.53;;;;;;;-140.33;100.00;61596.09;5009660;28;20454;-72
2024/01/19 09:11:40;;;;;;;138.80;66.75;;;;;;;-140.33;100.00;61596.09;5023340;28;20045;-72
2024/01/19 09:14:09;;;;;;;134.55;66.78;;;;;;;-140.33;100.00;61596.09;5022513;28;20041;-72
2024/01/19 09:16:34;;;;;;;123.03;64.10;;;;;;;-140.33;100.00;61596.09;5010459;28;20112;-74
2024/01/19 09:19:00;;;;;;;130.38;67.15;;;;;;;-140.33;100.00;61596.09;5008938;28;20423;-74
2024/01/19 09:21:26;;;;;;;130.57;72.03;;;;;;;-140.33;100.00;61596.09;5018638;28;20037;-72
2024/01/19 09:23:51;;;;;;;118.78;67.07;;;;;;;-140.33;100.00;61596.09;5010186;28;20045;-72
2024/01/19 09:26:21;;;;;;;109.82;64.88;;;;;;;-140.33;100.00;61596.09;5023057;28;20458;-71
2024/01/19 09:28:47;;;;;;;122.60;68.20;;;;;;;-140.33;100.00;61596.09;5018066;28;20108;-75
2024/01/19 09:31:13;;;;;;;121.70;67.93;;;;;;;-140.33;100.00;61596.09;5009538;28;20116;-73
2024/01/19 09:33:39;;;;;;;113.10;67.03;;;;;;;-140.33;100.00;61596.09;5026325;28;20487;-73
2024/01/19 09:36:06;;;;;;;122.82;70.38;;;;;;;-140.33;100.00;61596.09;5026678;28;20034;-74
2024/01/19 09:38:35;;;;;;;129.32;73.72;;;;;;;-140.33;100.00;61596.09;5012515;28;20071;-74
2024/01/19 09:41:30;;;;;;;129.00;74.22;;;;;;;-140.33;100.00;61596.09;5018795;28;20033;-74
2024/01/19 09:43:58;;;;;;;140.18;84.07;;;;;;;-140.33;100.00;61596.09;5018129;28;20033;-74
2024/01/19 09:46:28;;;;;;;138.68;80.25;;;;;;;-140.33;100.00;61596.09;5014096;28;20492;-74
2024/01/19 09:49:28;;;;;;;161.25;93.65;;;;;;;-140.33;100.00;61596.09;5018126;28;20492;-74
2024/01/19 09:52:07;;;;;;;140.30;82.20;;;;;;;-140.33;100.00;61596.09;5012107;28;20132;-74
2024/01/19 09:54:34;;;;;;;132.57;79.45;;;;;;;-140.33;100.00;61596.09;5022102;28;20483;-74
2024/01/19 09:57:03;;;;;;;166.73;110.03;;;;;;;-140.33;100.00;61596.09;5019601;28;20030;-74
2024/01/19 09:59:30;;;;;;;121.88;81.30;;;;;;;-140.33;100.00;61596.09;5020409;28;20029;-74
2024/01/19 10:01:57;;;;;;;116.13;74.28;;;;;;;-140.33;100.00;61596.09;5020469;28;20452;-74
2024/01/19 10:04:22;;;;;;;120.25;79.55;;;;;;;-140.33;100.00;61596.09;5022141;28;20061;-73
2024/01/19 10:06:49;;;;;;;110.38;75.88;;;;;;;-140.33;100.00;61596.09;5018400;28;20060;-74
2024/01/19 10:09:16;;;;;;;101.25;67.30;;;;;;;-140.33;100.00;61596.09;5022686;28;20407;-74
2024/01/19 10:11:42;;;;;;;108.55;75.00;;;;;;;-140.33;100.00;61596.09;5015672;28;20032;-74
2024/01/19 10:14:08;;;;;;;80.65;54.75;;;;;;;-140.33;100.00;61596.09;5015591;28;20100;-74
2024/01/19 10:16:35;;;;;;;70.93;48.42;;;;;;;-140.33;100.00;61596.09;5011908;28;20119;-73
2024/01/19 10:19:04;;;;;;;76.07;52.40;;;;;;;-140.33;100.00;61596.09;5020498;28;20455;-73
2024/01/19 10:21:30;;;;;;;66.60;47.90;;;;;;;-140.33;100.00;61596.09;5017171;28;20053;-73
2024/01/19 10:24:15;;;;;;;58.10;42.65;;;;;;;-140.33;100.00;61596.09;5019506;28;20487;-73
2024/01/19 10:26:46;;;;;;;63.65;43.47;;;;;;;-140.33;100.00;61596.09;5017771;28;20117;-73
2024/01/19 10:29:13;;;;;;;56.38;41.60;;;;;;;-140.33;100.00;61596.09;4997849;28;20416;-74
2024/01/19 10:31:41;;;;;;;56.95;40.00;;;;;;;-140.33;100.00;61596.09;4665314;28;10001075;-74
2024/01/19 10:34:24;;;;;;;54.00;38.40;;;;;;;-140.33;100.00;61596.09;5015620;28;20045;-73
2024/01/19 10:36:51;;;;;;;50.17;37.08;;;;;;;-140.33;100.00;61596.09;5015973;28;20037;-73
2024/01/19 10:39:21;;;;;;;47.47;33.53;;;;;;;-140.33;100.00;61596.09;5016975;28;20033;-73
2024/01/19 10:41:48;;;;;;;43.05;31.80;;;;;;;-140.33;100.00;61596.09;4997916;28;20038;-73
2024/01/19 10:44:23;;;;;;;38.28;27.67;;;;;;;-140.33;100.00;61596.09;5013266;28;20546;-71
2024/01/19 10:46:50;;;;;;;40.80;30.48;;;;;;;-140.33;100.00;61596.09;5017961;28;20108;-73